sensor_id;sensor_type;location;lat;lon;timestamp;pressure;altitude;pressure_sealevel;temperature;humidity
12987;BME280;58897;51.960;5.582;2023-09-30T00:02:26;102218.13;;;13.61;100.00
12987;BME280;58897;51.960;5.582;2023-09-30T00:04:52;102210.28;;;13.58;100.00
12987;BME280;58897;51.960;5.582;2023-09-30T00:07:19;102218.41;;;13.58;100.00
12987;BME280;58897;51.960;5.582;2023-09-30T00:09:45;102230.59;;;13.54;100.00
12987;BME280;58897;51.960;5.582;2023-09-30T00:12:12;102243.13;;;13.65;100.00
12987;BME280;58897;51.960;5.582;2023-09-30T00:14:39;102240.38;;;13.75;100.00
12987;BME280;58897;51.960;5.582;2023-09-30T00:17:05;102230.41;;;13.66;100.00
12987;BME280;58897;51.960;5.582;2023-09-30T00:19:31;102236.94;;;13.73;100.00
12987;BME280;58897;51.960;5.582;2023-09-30T00:21:59;102237.50;;;13.76;100.00
12987;BME280;58897;51.960;5.582;2023-09-30T00:24:26;102229.59;;;13.55;100.00
12987;BME280;58897;51.960;5.582;2023-09-30T00:26:53;102237.19;;;13.52;100.00
12987;BME280;58897;51.960;5.582;2023-09-30T00:29:20;102226.16;;;13.53;100.00
12987;BME280;58897;51.960;5.582;2023-09-30T00:31:46;102227.88;;;13.54;100.00
12987;BME280;58897;51.960;5.582;2023-09-30T00:34:14;102224.31;;;13.54;100.00
12987;BME280;58897;51.960;5.582;2023-09-30T00:36:40;102236.03;;;13.54;100.00
12987;BME280;58897;51.960;5.582;2023-09-30T00:39:07;102244.19;;;13.54;100.00
12987;BME280;58897;51.960;5.582;2023-09-30T00:41:34;102245.66;;;13.39;100.00
12987;BME280;58897;51.960;5.582;2023-09-30T00:44:01;102257.38;;;13.40;100.00
12987;BME280;58897;51.960;5.582;2023-09-30T00:46:36;102266.09;;;13.34;100.00
12987;BME280;58897;51.960;5.582;2023-09-30T00:49:03;102262.38;;;13.35;100.00
12987;BME280;58897;51.960;5.582;2023-09-30T00:51:30;102256.56;;;13.20;100.00
12987;BME280;58897;51.960;5.582;2023-09-30T00:53:59;102264.66;;;13.30;100.00
12987;BME280;58897;51.960;5.582;2023-09-30T00:56:28;102256.53;;;13.39;100.00
12987;BME280;58897;51.960;5.582;2023-09-30T00:58:56;102267.09;;;13.42;100.00
12987;BME280;58897;51.960;5.582;2023-09-30T01:01:23;102260.38;;;13.37;100.00
12987;BME280;58897;51.960;5.582;2023-09-30T01:03:50;102258.53;;;13.37;100.00
12987;BME280;58897;51.960;5.582;2023-09-30T01:06:17;102258.94;;;13.42;100.00
12987;BME280;58897;51.960;5.582;2023-09-30T01:08:44;102260.78;;;13.42;100.00
12987;BME280;58897;51.960;5.582;2023-09-30T01:11:12;102257.22;;;13.41;100.00
12987;BME280;58897;51.960;5.582;2023-09-30T01:13:40;102261.66;;;13.33;100.00
12987;BME280;58897;51.960;5.582;2023-09-30T01:16:08;102265.69;;;13.29;100.00
12987;BME280;58897;51.960;5.582;2023-09-30T01:18:39;102271.25;;;13.27;100.00
12987;BME280;58897;51.960;5.582;2023-09-30T01:21:06;102276.91;;;13.43;100.00
12987;BME280;58897;51.960;5.582;2023-09-30T01:23:34;102276.78;;;13.45;100.00
12987;BME280;58897;51.960;5.582;2023-09-30T01:26:06;102271.63;;;13.51;100.00
12987;BME280;58897;51.960;5.582;2023-09-30T01:28:33;102280.34;;;13.45;100.00
12987;BME280;58897;51.960;5.582;2023-09-30T01:30:59;102286.91;;;13.43;100.00
12987;BME280;58897;51.960;5.582;2023-09-30T01:33:27;102295.06;;;13.43;100.00
12987;BME280;58897;51.960;5.582;2023-09-30T01:35:54;102285.06;;;13.43;100.00
12987;BME280;58897;51.960;5.582;2023-09-30T01:38:21;102297.50;;;13.46;100.00
12987;BME280;58897;51.960;5.582;2023-09-30T01:40:48;102294.81;;;13.36;100.00
12987;BME280;58897;51.960;5.582;2023-09-30T01:43:14;102287.53;;;13.37;100.00
12987;BME280;58897;51.960;5.582;2023-09-30T01:45:42;102289.22;;;13.38;100.00
12987;BME280;58897;51.960;5.582;2023-09-30T01:48:09;102291.34;;;13.44;100.00
12987;BME280;58897;51.960;5.582;2023-09-30T01:50:39;102284.97;;;13.26;100.00
12987;BME280;58897;51.960;5.582;2023-09-30T01:53:08;102284.06;;;13.35;100.00
12987;BME280;58897;51.960;5.582;2023-09-30T01:55:36;102278.97;;;13.32;100.00
12987;BME280;58897;51.960;5.582;2023-09-30T01:58:03;102283.25;;;13.25;100.00
12987;BME280;58897;51.960;5.582;2023-09-30T02:00:29;102278.22;;;13.30;100.00
12987;BME280;58897;51.960;5.582;2023-09-30T02:02:57;102274.22;;;13.43;100.00
12987;BME280;58897;51.960;5.582;2023-09-30T02:05:24;102272.97;;;13.28;100.00
12987;BME280;58897;51.960;5.582;2023-09-30T02:07:51;102272.97;;;13.28;100.00
12987;BME280;58897;51.960;5.582;2023-09-30T02:10:18;102269.81;;;13.33;100.00
12987;BME280;58897;51.960;5.582;2023-09-30T02:12:45;102282.22;;;13.35;100.00
12987;BME280;58897;51.960;5.582;2023-09-30T02:15:13;102285.06;;;13.43;100.00
12987;BME280;58897;51.960;5.582;2023-09-30T02:17:39;102286.47;;;13.57;100.00
12987;BME280;58897;51.960;5.582;2023-09-30T02:20:07;102289.91;;;13.49;100.00
12987;BME280;58897;51.960;5.582;2023-09-30T02:22:39;102297.72;;;13.62;100.00
12987;BME280;58897;51.960;5.582;2023-09-30T02:25:06;102287.56;;;13.64;100.00
12987;BME280;58897;51.960;5.582;2023-09-30T02:27:34;102293.38;;;13.42;100.00
12987;BME280;58897;51.960;5.582;2023-09-30T02:30:00;102293.38;;;13.42;100.00
12987;BME280;58897;51.960;5.582;2023-09-30T02:32:27;102293.50;;;13.40;100.00
12987;BME280;58897;51.960;5.582;2023-09-30T02:34:54;102295.25;;;13.32;100.00
12987;BME280;58897;51.960;5.582;2023-09-30T02:37:20;102287.09;;;13.32;100.00
12987;BME280;58897;51.960;5.582;2023-09-30T02:39:47;102282.09;;;13.37;100.00
12987;BME280;58897;51.960;5.582;2023-09-30T02:42:13;102278.41;;;13.28;100.00
12987;BME280;58897;51.960;5.582;2023-09-30T02:44:40;102280.25;;;13.37;100.00
12987;BME280;58897;51.960;5.582;2023-09-30T02:47:06;102276.97;;;13.34;100.00
12987;BME280;58897;51.960;5.582;2023-09-30T02:49:33;102274.09;;;13.35;100.00
12987;BME280;58897;51.960;5.582;2023-09-30T02:51:59;102267.00;;;13.15;100.00
12987;BME280;58897;51.960;5.582;2023-09-30T02:54:26;102267.50;;;13.38;100.00
12987;BME280;58897;51.960;5.582;2023-09-30T02:56:53;102266.22;;;13.32;100.00
12987;BME280;58897;51.960;5.582;2023-09-30T02:59:21;102270.97;;;13.30;100.00
12987;BME280;58897;51.960;5.582;2023-09-30T03:01:48;102265.69;;;13.29;100.00
12987;BME280;58897;51.960;5.582;2023-09-30T03:04:15;102276.38;;;13.30;100.00
12987;BME280;58897;51.960;5.582;2023-09-30T03:06:46;102277.41;;;13.20;100.00
12987;BME280;58897;51.960;5.582;2023-09-30T03:09:13;102276.53;;;13.19;100.00
12987;BME280;58897;51.960;5.582;2023-09-30T03:11:41;102271.56;;;13.15;100.00
12987;BME280;58897;51.960;5.582;2023-09-30T03:14:12;102275.28;;;13.14;100.00
12987;BME280;58897;51.960;5.582;2023-09-30T03:16:40;102279.72;;;13.24;100.00
12987;BME280;58897;51.960;5.582;2023-09-30T03:19:08;102284.28;;;13.24;100.00
12987;BME280;58897;51.960;5.582;2023-09-30T03:21:34;102275.25;;;13.23;100.00
12987;BME280;58897;51.960;5.582;2023-09-30T03:24:04;102279.41;;;13.18;100.00
12987;BME280;58897;51.960;5.582;2023-09-30T03:26:31;102284.13;;;13.06;100.00
12987;BME280;58897;51.960;5.582;2023-09-30T03:28:58;102282.41;;;12.95;100.00
12987;BME280;58897;51.960;5.582;2023-09-30T03:31:25;102285.13;;;13.05;100.00
12987;BME280;58897;51.960;5.582;2023-09-30T03:33:52;102277.13;;;12.94;100.00
12987;BME280;58897;51.960;5.582;2023-09-30T03:36:22;102282.13;;;12.89;100.00
12987;BME280;58897;51.960;5.582;2023-09-30T03:38:52;102283.56;;;12.83;100.00
12987;BME280;58897;51.960;5.582;2023-09-30T03:41:20;102282.53;;;13.03;100.00
12987;BME280;58897;51.960;5.582;2023-09-30T03:43:47;102278.56;;;12.98;100.00
12987;BME280;58897;51.960;5.582;2023-09-30T03:46:15;102279.44;;;13.08;100.00
12987;BME280;58897;51.960;5.582;2023-09-30T03:48:42;102279.56;;;12.97;100.00
12987;BME280;58897;51.960;5.582;2023-09-30T03:51:12;102278.97;;;12.93;100.00
12987;BME280;58897;51.960;5.582;2023-09-30T03:53:44;102277.97;;;13.04;100.00
12987;BME280;58897;51.960;5.582;2023-09-30T03:56:11;102278.84;;;12.76;100.00
12987;BME280;58897;51.960;5.582;2023-09-30T03:58:42;102279.13;;;13.01;100.00
12987;BME280;58897;51.960;5.582;2023-09-30T04:01:09;102282.69;;;13.02;100.00
12987;BME280;58897;51.960;5.582;2023-09-30T04:03:37;102287.81;;;13.05;100.00
12987;BME280;58897;51.960;5.582;2023-09-30T04:06:10;102285.97;;;12.86;100.00
12987;BME280;58897;51.960;5.582;2023-09-30T04:08:37;102283.69;;;12.91;100.00
12987;BME280;58897;51.960;5.582;2023-09-30T04:11:03;102286.56;;;13.09;100.00
12987;BME280;58897;51.960;5.582;2023-09-30T04:13:30;102275.13;;;12.96;100.00
12987;BME280;58897;51.960;5.582;2023-09-30T04:15:57;102274.84;;;12.89;100.00
12987;BME280;58897;51.960;5.582;2023-09-30T04:18:26;102282.09;;;12.98;100.00
12987;BME280;58897;51.960;5.582;2023-09-30T04:20:53;102289.28;;;13.09;100.00
12987;BME280;58897;51.960;5.582;2023-09-30T04:23:20;102287.97;;;13.23;100.00
12987;BME280;58897;51.960;5.582;2023-09-30T04:25:48;102279.44;;;13.08;100.00
12987;BME280;58897;51.960;5.582;2023-09-30T04:28:16;102290.41;;;12.97;100.00
12987;BME280;58897;51.960;5.582;2023-09-30T04:30:47;102289.56;;;13.06;100.00
12987;BME280;58897;51.960;5.582;2023-09-30T04:33:17;102292.97;;;12.98;100.00
12987;BME280;58897;51.960;5.582;2023-09-30T04:35:44;102283.56;;;13.02;100.00
12987;BME280;58897;51.960;5.582;2023-09-30T04:38:12;102290.13;;;13.10;100.00
12987;BME280;58897;51.960;5.582;2023-09-30T04:40:39;102294.25;;;13.04;100.00
12987;BME280;58897;51.960;5.582;2023-09-30T04:43:05;102291.09;;;12.99;100.00
12987;BME280;58897;51.960;5.582;2023-09-30T04:45:32;102285.13;;;12.95;100.00
12987;BME280;58897;51.960;5.582;2023-09-30T04:47:59;102292.56;;;12.84;100.00
12987;BME280;58897;51.960;5.582;2023-09-30T04:50:28;102294.41;;;12.93;100.00
12987;BME280;58897;51.960;5.582;2023-09-30T04:52:57;102298.13;;;12.92;100.00
12987;BME280;58897;51.960;5.582;2023-09-30T04:55:26;102298.84;;;12.84;100.00
12987;BME280;58897;51.960;5.582;2023-09-30T04:57:53;102300.84;;;12.82;100.00
12987;BME280;58897;51.960;5.582;2023-09-30T05:00:20;102298.69;;;12.95;100.00
12987;BME280;58897;51.960;5.582;2023-09-30T05:02:52;102299.97;;;12.91;100.00
12987;BME280;58897;51.960;5.582;2023-09-30T05:05:19;102309.53;;;12.95;100.00
12987;BME280;58897;51.960;5.582;2023-09-30T05:07:45;102310.81;;;13.01;100.00
12987;BME280;58897;51.960;5.582;2023-09-30T05:10:14;102312.25;;;12.95;100.00
12987;BME280;58897;51.960;5.582;2023-09-30T05:12:43;102322.09;;;12.96;100.00
12987;BME280;58897;51.960;5.582;2023-09-30T05:15:15;102322.94;;;12.97;100.00
12987;BME280;58897;51.960;5.582;2023-09-30T05:17:43;102320.81;;;12.81;100.00
12987;BME280;58897;51.960;5.582;2023-09-30T05:20:14;102317.53;;;12.87;100.00
12987;BME280;58897;51.960;5.582;2023-09-30T05:22:44;102320.25;;;12.97;100.00
12987;BME280;58897;51.960;5.582;2023-09-30T05:25:15;102322.09;;;12.87;100.00
12987;BME280;58897;51.960;5.582;2023-09-30T05:27:43;102316.38;;;12.80;100.00
12987;BME280;58897;51.960;5.582;2023-09-30T05:30:10;102319.50;;;12.85;100.00
12987;BME280;58897;51.960;5.582;2023-09-30T05:32:37;102312.81;;;12.89;100.00
12987;BME280;58897;51.960;5.582;2023-09-30T05:35:06;102321.09;;;12.88;100.00
12987;BME280;58897;51.960;5.582;2023-09-30T05:37:40;102324.09;;;12.85;100.00
12987;BME280;58897;51.960;5.582;2023-09-30T05:40:08;102311.53;;;12.93;100.00
12987;BME280;58897;51.960;5.582;2023-09-30T05:42:44;102314.09;;;12.76;100.00
12987;BME280;58897;51.960;5.582;2023-09-30T05:45:11;102322.94;;;12.78;100.00
12987;BME280;58897;51.960;5.582;2023-09-30T05:47:39;102340.50;;;12.74;100.00
12987;BME280;58897;51.960;5.582;2023-09-30T05:50:07;102343.38;;;12.82;100.00
12987;BME280;58897;51.960;5.582;2023-09-30T05:52:35;102341.66;;;12.71;100.00
12987;BME280;58897;51.960;5.582;2023-09-30T05:55:03;102337.09;;;12.81;100.00
12987;BME280;58897;51.960;5.582;2023-09-30T05:57:31;102330.50;;;12.93;100.00
12987;BME280;58897;51.960;5.582;2023-09-30T05:59:57;102327.06;;;13.01;100.00
12987;BME280;58897;51.960;5.582;2023-09-30T06:02:24;102317.81;;;12.94;100.00
12987;BME280;58897;51.960;5.582;2023-09-30T06:04:51;102323.66;;;12.89;100.00
12987;BME280;58897;51.960;5.582;2023-09-30T06:07:19;102327.53;;;12.87;100.00
12987;BME280;58897;51.960;5.582;2023-09-30T06:09:46;102315.81;;;12.96;100.00
12987;BME280;58897;51.960;5.582;2023-09-30T06:12:16;102320.53;;;12.94;100.00
12987;BME280;58897;51.960;5.582;2023-09-30T06:14:43;102323.53;;;12.81;100.00
12987;BME280;58897;51.960;5.582;2023-09-30T06:17:10;102332.78;;;12.88;100.00
12987;BME280;58897;51.960;5.582;2023-09-30T06:19:36;102337.34;;;12.88;100.00
12987;BME280;58897;51.960;5.582;2023-09-30T06:22:04;102322.09;;;12.87;100.00
12987;BME280;58897;51.960;5.582;2023-09-30T06:24:31;102320.06;;;12.70;100.00
12987;BME280;58897;51.960;5.582;2023-09-30T06:26:57;102327.25;;;12.90;100.00
12987;BME280;58897;51.960;5.582;2023-09-30T06:29:24;102328.22;;;12.89;100.00
12987;BME280;58897;51.960;5.582;2023-09-30T06:31:51;102338.25;;;12.98;100.00
12987;BME280;58897;51.960;5.582;2023-09-30T06:34:17;102330.94;;;12.98;100.00
12987;BME280;58897;51.960;5.582;2023-09-30T06:36:44;102331.22;;;12.86;100.00
12987;BME280;58897;51.960;5.582;2023-09-30T06:39:10;102329.81;;;12.91;100.00
12987;BME280;58897;51.960;5.582;2023-09-30T06:41:37;102336.34;;;12.98;100.00
12987;BME280;58897;51.960;5.582;2023-09-30T06:44:04;102348.34;;;12.96;100.00
12987;BME280;58897;51.960;5.582;2023-09-30T06:46:30;102348.78;;;13.01;100.00
12987;BME280;58897;51.960;5.582;2023-09-30T06:48:57;102354.19;;;13.01;100.00
12987;BME280;58897;51.960;5.582;2023-09-30T06:51:24;102360.66;;;13.00;100.00
12987;BME280;58897;51.960;5.582;2023-09-30T06:53:53;102373.25;;;13.11;100.00
12987;BME280;58897;51.960;5.582;2023-09-30T06:56:19;102371.09;;;13.14;100.00
12987;BME280;58897;51.960;5.582;2023-09-30T06:58:46;102375.09;;;13.20;100.00
12987;BME280;58897;51.960;5.582;2023-09-30T07:01:15;102375.25;;;13.18;100.00
12987;BME280;58897;51.960;5.582;2023-09-30T07:03:43;102374.66;;;13.15;100.00
12987;BME280;58897;51.960;5.582;2023-09-30T07:06:10;102382.09;;;13.22;100.00
12987;BME280;58897;51.960;5.582;2023-09-30T07:08:36;102385.81;;;13.21;100.00
12987;BME280;58897;51.960;5.582;2023-09-30T07:11:02;102388.53;;;13.21;100.00
12987;BME280;58897;51.960;5.582;2023-09-30T07:13:31;102391.38;;;13.10;100.00
12987;BME280;58897;51.960;5.582;2023-09-30T07:15:57;102386.78;;;13.30;100.00
12987;BME280;58897;51.960;5.582;2023-09-30T07:18:24;102392.53;;;13.27;100.00
12987;BME280;58897;51.960;5.582;2023-09-30T07:20:51;102380.22;;;13.32;100.00
12987;BME280;58897;51.960;5.582;2023-09-30T07:23:19;102404.09;;;13.38;100.00
12987;BME280;58897;51.960;5.582;2023-09-30T07:25:47;102397.78;;;13.38;100.00
12987;BME280;58897;51.960;5.582;2023-09-30T07:28:14;102401.09;;;13.32;100.00
12987;BME280;58897;51.960;5.582;2023-09-30T07:30:40;102413.78;;;13.50;100.00
12987;BME280;58897;51.960;5.582;2023-09-30T07:33:07;102416.50;;;13.60;100.00
12987;BME280;58897;51.960;5.582;2023-09-30T07:35:34;102406.38;;;13.52;100.00
12987;BME280;58897;51.960;5.582;2023-09-30T07:38:01;102414.22;;;13.55;100.00
12987;BME280;58897;51.960;5.582;2023-09-30T07:40:30;102420.63;;;13.74;100.00
12987;BME280;58897;51.960;5.582;2023-09-30T07:42:57;102423.16;;;13.94;100.00
12987;BME280;58897;51.960;5.582;2023-09-30T07:45:24;102430.69;;;14.00;100.00
12987;BME280;58897;51.960;5.582;2023-09-30T07:47:50;102430.81;;;14.08;100.00
12987;BME280;58897;51.960;5.582;2023-09-30T07:50:18;102425.41;;;13.99;100.00
12987;BME280;58897;51.960;5.582;2023-09-30T07:52:45;102432.94;;;14.14;100.00
12987;BME280;58897;51.960;5.582;2023-09-30T07:55:12;102435.66;;;14.34;100.00
12987;BME280;58897;51.960;5.582;2023-09-30T07:57:40;102438.63;;;14.31;100.00
12987;BME280;58897;51.960;5.582;2023-09-30T08:00:09;102425.97;;;14.49;100.00
12987;BME280;58897;51.960;5.582;2023-09-30T08:02:41;102427.25;;;14.99;100.00
12987;BME280;58897;51.960;5.582;2023-09-30T08:05:08;102412.16;;;15.05;100.00
12987;BME280;58897;51.960;5.582;2023-09-30T08:07:35;102410.63;;;15.20;100.00
12987;BME280;58897;51.960;5.582;2023-09-30T08:10:03;102404.34;;;15.19;100.00
12987;BME280;58897;51.960;5.582;2023-09-30T08:12:39;102407.88;;;15.02;100.00
12987;BME280;58897;51.960;5.582;2023-09-30T08:15:06;102395.16;;;15.56;100.00
12987;BME280;58897;51.960;5.582;2023-09-30T08:17:33;102396.06;;;15.64;100.00
12987;BME280;58897;51.960;5.582;2023-09-30T08:20:00;102382.59;;;15.63;100.00
12987;BME280;58897;51.960;5.582;2023-09-30T08:22:26;102386.00;;;15.90;100.00
12987;BME280;58897;51.960;5.582;2023-09-30T08:24:54;102371.66;;;16.48;100.00
12987;BME280;58897;51.960;5.582;2023-09-30T08:27:21;102352.97;;;16.61;100.00
12987;BME280;58897;51.960;5.582;2023-09-30T08:29:51;102344.19;;;16.91;100.00
12987;BME280;58897;51.960;5.582;2023-09-30T08:32:17;102331.25;;;17.34;100.00
12987;BME280;58897;51.960;5.582;2023-09-30T08:34:44;102330.03;;;17.36;100.00
12987;BME280;58897;51.960;5.582;2023-09-30T08:37:10;102332.25;;;17.49;100.00
12987;BME280;58897;51.960;5.582;2023-09-30T08:39:40;102331.38;;;17.72;100.00
12987;BME280;58897;51.960;5.582;2023-09-30T08:42:10;102329.00;;;18.24;100.00
12987;BME280;58897;51.960;5.582;2023-09-30T08:44:38;102331.06;;;18.22;100.00
12987;BME280;58897;51.960;5.582;2023-09-30T08:47:06;102331.09;;;18.53;100.00
12987;BME280;58897;51.960;5.582;2023-09-30T08:49:37;102322.94;;;19.21;100.00
12987;BME280;58897;51.960;5.582;2023-09-30T08:52:05;102334.03;;;17.97;100.00
12987;BME280;58897;51.960;5.582;2023-09-30T08:54:32;102342.56;;;18.48;100.00
12987;BME280;58897;51.960;5.582;2023-09-30T08:57:00;102331.84;;;19.00;100.00
12987;BME280;58897;51.960;5.582;2023-09-30T08:59:27;102322.25;;;19.19;100.00
12987;BME280;58897;51.960;5.582;2023-09-30T09:01:54;102323.28;;;19.18;100.00
12987;BME280;58897;51.960;5.582;2023-09-30T09:04:20;102331.44;;;19.63;100.00
12987;BME280;58897;51.960;5.582;2023-09-30T09:06:49;102321.72;;;19.61;100.00
12987;BME280;58897;51.960;5.582;2023-09-30T09:09:18;102325.41;;;19.31;100.00
12987;BME280;58897;51.960;5.582;2023-09-30T09:11:46;102334.75;;;19.59;100.00
12987;BME280;58897;51.960;5.582;2023-09-30T09:14:13;102336.88;;;20.01;100.00
12987;BME280;58897;51.960;5.582;2023-09-30T09:16:51;102346.72;;;19.21;100.00
12987;BME280;58897;51.960;5.582;2023-09-30T09:19:19;102346.31;;;20.13;100.00
12987;BME280;58897;51.960;5.582;2023-09-30T09:22:00;102338.69;;;19.94;100.00
12987;BME280;58897;51.960;5.582;2023-09-30T09:24:30;102350.69;;;20.87;100.00
12987;BME280;58897;51.960;5.582;2023-09-30T09:27:07;102352.50;;;21.16;100.00
12987;BME280;58897;51.960;5.582;2023-09-30T09:29:35;102355.97;;;21.24;100.00
12987;BME280;58897;51.960;5.582;2023-09-30T09:32:13;102369.63;;;21.88;100.00
12987;BME280;58897;51.960;5.582;2023-09-30T09:34:41;102370.97;;;21.71;100.00
12987;BME280;58897;51.960;5.582;2023-09-30T09:37:19;102366.47;;;21.63;100.00
12987;BME280;58897;51.960;5.582;2023-09-30T09:39:56;102373.84;;;22.59;100.00
12987;BME280;58897;51.960;5.582;2023-09-30T09:42:31;102373.00;;;23.12;100.00
12987;BME280;58897;51.960;5.582;2023-09-30T09:45:04;102378.13;;;23.35;100.00
12987;BME280;58897;51.960;5.582;2023-09-30T09:47:32;102381.50;;;22.23;100.00
12987;BME280;58897;51.960;5.582;2023-09-30T09:50:03;102382.66;;;22.82;100.00
12987;BME280;58897;51.960;5.582;2023-09-30T09:52:30;102387.47;;;22.67;100.00
12987;BME280;58897;51.960;5.582;2023-09-30T09:54:58;102372.03;;;23.72;100.00
12987;BME280;58897;51.960;5.582;2023-09-30T09:57:25;102373.06;;;23.78;100.00
12987;BME280;58897;51.960;5.582;2023-09-30T09:59:53;102373.81;;;22.93;100.00
12987;BME280;58897;51.960;5.582;2023-09-30T10:02:25;102378.38;;;22.32;100.00
12987;BME280;58897;51.960;5.582;2023-09-30T10:04:54;102383.72;;;22.40;100.00
12987;BME280;58897;51.960;5.582;2023-09-30T10:07:27;102390.75;;;21.60;100.00
12987;BME280;58897;51.960;5.582;2023-09-30T10:09:55;102397.44;;;21.50;100.00
12987;BME280;58897;51.960;5.582;2023-09-30T10:12:25;102400.03;;;22.83;100.00
12987;BME280;58897;51.960;5.582;2023-09-30T10:14:52;102399.63;;;22.45;100.00
12987;BME280;58897;51.960;5.582;2023-09-30T10:17:19;102386.84;;;24.11;100.00
12987;BME280;58897;51.960;5.582;2023-09-30T10:20:15;102395.63;;;22.47;100.00
12987;BME280;58897;51.960;5.582;2023-09-30T10:22:42;102387.63;;;22.52;100.00
12987;BME280;58897;51.960;5.582;2023-09-30T10:25:33;102372.75;;;22.94;100.00
12987;BME280;58897;51.960;5.582;2023-09-30T10:28:32;102357.94;;;23.21;100.00
12987;BME280;58897;51.960;5.582;2023-09-30T10:36:37;102350.09;;;24.68;100.00
12987;BME280;58897;51.960;5.582;2023-09-30T10:39:11;102349.59;;;25.53;100.00
12987;BME280;58897;51.960;5.582;2023-09-30T10:46:54;102348.25;;;22.24;100.00
12987;BME280;58897;51.960;5.582;2023-09-30T10:51:58;102340.38;;;23.68;100.00
12987;BME280;58897;51.960;5.582;2023-09-30T10:54:31;102351.81;;;23.98;100.00
12987;BME280;58897;51.960;5.582;2023-09-30T10:56:59;102350.13;;;23.84;100.00
12987;BME280;58897;51.960;5.582;2023-09-30T10:59:28;102341.97;;;24.86;100.00
12987;BME280;58897;51.960;5.582;2023-09-30T11:01:56;102344.03;;;24.46;100.00
12987;BME280;58897;51.960;5.582;2023-09-30T11:04:24;102346.41;;;24.42;100.00
12987;BME280;58897;51.960;5.582;2023-09-30T11:06:51;102344.81;;;23.89;100.00
12987;BME280;58897;51.960;5.582;2023-09-30T11:09:20;102344.78;;;24.79;100.00
12987;BME280;58897;51.960;5.582;2023-09-30T11:17:00;102345.72;;;23.57;100.00
12987;BME280;58897;51.960;5.582;2023-09-30T11:19:35;102356.47;;;21.83;100.00
12987;BME280;58897;51.960;5.582;2023-09-30T11:22:02;102352.00;;;21.54;100.00
12987;BME280;58897;51.960;5.582;2023-09-30T11:24:28;102346.13;;;22.20;100.00
12987;BME280;58897;51.960;5.582;2023-09-30T11:26:55;102353.78;;;22.24;100.00
12987;BME280;58897;51.960;5.582;2023-09-30T11:29:22;102350.63;;;21.93;100.00
12987;BME280;58897;51.960;5.582;2023-09-30T11:31:49;102344.13;;;21.24;100.00
12987;BME280;58897;51.960;5.582;2023-09-30T11:34:18;102349.09;;;20.99;100.00
12987;BME280;58897;51.960;5.582;2023-09-30T11:36:50;102330.78;;;20.64;100.00
12987;BME280;58897;51.960;5.582;2023-09-30T11:39:27;102323.03;;;21.31;100.00
12987;BME280;58897;51.960;5.582;2023-09-30T11:41:54;102329.41;;;21.10;100.00
12987;BME280;58897;51.960;5.582;2023-09-30T11:44:24;102319.94;;;21.89;100.00
12987;BME280;58897;51.960;5.582;2023-09-30T11:47:00;102310.50;;;22.05;100.00
12987;BME280;58897;51.960;5.582;2023-09-30T11:49:35;102319.13;;;21.40;100.00
12987;BME280;58897;51.960;5.582;2023-09-30T11:52:04;102324.38;;;21.14;100.00
12987;BME280;58897;51.960;5.582;2023-09-30T11:54:32;102325.94;;;22.06;100.00
12987;BME280;58897;51.960;5.582;2023-09-30T11:57:00;102335.03;;;21.51;100.00
12987;BME280;58897;51.960;5.582;2023-09-30T11:59:28;102339.84;;;21.70;100.00
12987;BME280;58897;51.960;5.582;2023-09-30T12:01:56;102339.56;;;21.59;100.00
12987;BME280;58897;51.960;5.582;2023-09-30T12:04:40;102341.09;;;22.70;100.00
12987;BME280;58897;51.960;5.582;2023-09-30T12:07:07;102340.22;;;21.88;100.00
12987;BME280;58897;51.960;5.582;2023-09-30T12:09:35;102335.31;;;20.92;100.00
12987;BME280;58897;51.960;5.582;2023-09-30T12:12:04;102331.22;;;20.31;100.00
12987;BME280;58897;51.960;5.582;2023-09-30T12:14:30;102329.44;;;20.39;100.00
12987;BME280;58897;51.960;5.582;2023-09-30T12:16:57;102320.59;;;20.79;100.00
12987;BME280;58897;51.960;5.582;2023-09-30T12:19:24;102320.78;;;20.42;100.00
12987;BME280;58897;51.960;5.582;2023-09-30T12:21:53;102314.47;;;20.62;100.00
12987;BME280;58897;51.960;5.582;2023-09-30T12:24:19;102315.56;;;20.82;100.00
12987;BME280;58897;51.960;5.582;2023-09-30T12:26:49;102302.13;;;21.09;100.00
12987;BME280;58897;51.960;5.582;2023-09-30T12:29:20;102306.72;;;21.85;100.00
12987;BME280;58897;51.960;5.582;2023-09-30T12:31:50;102292.38;;;21.06;100.00
12987;BME280;58897;51.960;5.582;2023-09-30T12:34:20;102295.47;;;21.73;100.00
12987;BME280;58897;51.960;5.582;2023-09-30T12:36:46;102284.69;;;21.78;100.00
12987;BME280;58897;51.960;5.582;2023-09-30T12:39:14;102286.22;;;21.53;100.00
12987;BME280;58897;51.960;5.582;2023-09-30T12:41:43;102278.84;;;21.88;100.00
12987;BME280;58897;51.960;5.582;2023-09-30T12:44:12;102275.59;;;22.12;100.00
12987;BME280;58897;51.960;5.582;2023-09-30T12:46:39;102287.34;;;21.93;100.00
12987;BME280;58897;51.960;5.582;2023-09-30T12:49:07;102292.31;;;22.10;100.00
12987;BME280;58897;51.960;5.582;2023-09-30T12:51:35;102284.44;;;21.73;100.00
12987;BME280;58897;51.960;5.582;2023-09-30T12:54:02;102282.50;;;21.67;100.00
12987;BME280;58897;51.960;5.582;2023-09-30T12:56:29;102279.78;;;20.97;100.00
12987;BME280;58897;51.960;5.582;2023-09-30T12:58:56;102276.56;;;20.93;100.00
12987;BME280;58897;51.960;5.582;2023-09-30T13:01:23;102276.53;;;21.29;100.00
12987;BME280;58897;51.960;5.582;2023-09-30T13:03:50;102283.47;;;21.53;100.00
12987;BME280;58897;51.960;5.582;2023-09-30T13:06:19;102276.19;;;21.73;100.00